EXS7TQ EGNT-LERS
Flight info
| Callsign | EXS7TQ |
|---|---|
| Flight time | 2h 19m |
| Altitude | 35000 |
| Route | GIRLI P18 GASKO DCT BURNI DCT ROSUN DCT LISTO UL612 HON/N0446F370 DCT SITET DCT RONAX DCT BEBIX DCT BERGA |
| Aircraft | A21N/M-SDE3FGHIRWY/LB1 |
Departure
| Time | 2026-04-21 18:32 |
|---|---|
| Airport | Newcastle International Airport (EGNT) |
Arrival
| Time | 2026-04-21 20:52 |
|---|---|
| Airport | Reus Airport (LERS) |
| Time | Latitude | Longitude | Altitude | Speed | Heading |
|---|---|---|---|---|---|
| 2026-04-21 17:54 | 55.03741 | -1.70751 | 269 ft | 0 kts | 183° |
| 2026-04-21 18:09 | 55.03742 | -1.70751 | 269 ft | 0 kts | 183° |
| 2026-04-21 18:09 | 55.03744 | -1.70751 | 269 ft | 0 kts | 183° |
| 2026-04-21 18:25 | 55.03752 | -1.70750 | 268 ft | 1 kts | 181° |
| 2026-04-21 18:26 | 55.03762 | -1.70750 | 268 ft | 2 kts | 173° |
| 2026-04-21 18:26 | 55.03777 | -1.70758 | 268 ft | 2 kts | 149° |
| 2026-04-21 18:26 | 55.03788 | -1.70774 | 268 ft | 2 kts | 129° |
| 2026-04-21 18:26 | 55.03796 | -1.70797 | 269 ft | 2 kts | 109° |
| 2026-04-21 18:27 | 55.03799 | -1.70813 | 269 ft | 0 kts | 96° |
| 2026-04-21 18:27 | 55.03799 | -1.70825 | 269 ft | 0 kts | 94° |
| 2026-04-21 18:28 | 55.03799 | -1.70818 | 269 ft | 1 kts | 85° |
| 2026-04-21 18:29 | 55.03803 | -1.70790 | 268 ft | 2 kts | 77° |
| 2026-04-21 18:29 | 55.03808 | -1.70741 | 268 ft | 8 kts | 83° |
| 2026-04-21 18:29 | 55.03811 | -1.70572 | 267 ft | 18 kts | 92° |
| 2026-04-21 18:29 | 55.03734 | -1.70428 | 264 ft | 18 kts | 176° |
| 2026-04-21 18:30 | 55.03620 | -1.70477 | 265 ft | 16 kts | 231° |
| 2026-04-21 18:30 | 55.03565 | -1.70607 | 267 ft | 11 kts | 184° |
| 2026-04-21 18:30 | 55.03492 | -1.70641 | 268 ft | 10 kts | 193° |
| 2026-04-21 18:30 | 55.03417 | -1.70643 | 268 ft | 10 kts | 171° |
| 2026-04-21 18:31 | 55.03382 | -1.70544 | 266 ft | 12 kts | 89° |
| 2026-04-21 18:31 | 55.03415 | -1.70407 | 265 ft | 12 kts | 63° |
| 2026-04-21 18:31 | 55.03453 | -1.70268 | 264 ft | 13 kts | 65° |
| 2026-04-21 18:31 | 55.03568 | -1.69825 | 255 ft | 78 kts | 64° |
| 2026-04-21 18:32 | 55.03899 | -1.68592 | 240 ft | 145 kts | 64° |
| 2026-04-21 18:32 | 55.04390 | -1.66812 | 579 ft | 170 kts | 64° |
| 2026-04-21 18:32 | 55.04869 | -1.65084 | 1612 ft | 157 kts | 65° |
| 2026-04-21 18:32 | 55.05327 | -1.63417 | 2407 ft | 159 kts | 65° |
| 2026-04-21 18:33 | 55.05822 | -1.61598 | 2960 ft | 175 kts | 65° |
| 2026-04-21 18:33 | 55.06352 | -1.59600 | 3523 ft | 191 kts | 69° |
| 2026-04-21 18:33 | 55.06481 | -1.57319 | 4188 ft | 202 kts | 98° |
| 2026-04-21 18:33 | 55.05888 | -1.55091 | 5046 ft | 210 kts | 126° |
| 2026-04-21 18:34 | 55.04697 | -1.53543 | 5740 ft | 229 kts | 154° |
| 2026-04-21 18:34 | 55.03034 | -1.53155 | 6270 ft | 255 kts | 175° |
| 2026-04-21 18:34 | 55.01208 | -1.53206 | 6851 ft | 271 kts | 175° |
| 2026-04-21 18:34 | 54.99300 | -1.53238 | 7647 ft | 276 kts | 176° |
| 2026-04-21 18:35 | 54.98017 | -1.53415 | 8039 ft | 281 kts | 186° |
| 2026-04-21 18:35 | 54.95572 | -1.55077 | 8453 ft | 289 kts | 205° |
| 2026-04-21 18:35 | 54.93835 | -1.56871 | 8458 ft | 289 kts | 207° |
| 2026-04-21 18:35 | 54.92131 | -1.58698 | 8476 ft | 289 kts | 207° |
| 2026-04-21 18:36 | 54.90378 | -1.60561 | 8732 ft | 296 kts | 207° |
| 2026-04-21 18:36 | 54.88600 | -1.62427 | 9629 ft | 297 kts | 207° |
| 2026-04-21 18:36 | 54.86817 | -1.64282 | 10573 ft | 296 kts | 206° |
| 2026-04-21 18:36 | 54.85031 | -1.66122 | 11234 ft | 305 kts | 207° |
| 2026-04-21 18:37 | 54.83101 | -1.68098 | 11651 ft | 323 kts | 207° |
| 2026-04-21 18:37 | 54.81096 | -1.70150 | 12194 ft | 336 kts | 207° |
| 2026-04-21 18:37 | 54.78993 | -1.72307 | 12977 ft | 340 kts | 207° |
| 2026-04-21 18:37 | 54.76900 | -1.74449 | 13786 ft | 343 kts | 207° |
| 2026-04-21 18:38 | 54.74777 | -1.76616 | 14536 ft | 347 kts | 208° |
| 2026-04-21 18:38 | 54.72651 | -1.78734 | 15269 ft | 349 kts | 204° |
| 2026-04-21 18:38 | 54.70303 | -1.80424 | 16009 ft | 350 kts | 195° |
| 2026-04-21 18:38 | 54.67894 | -1.81448 | 16754 ft | 351 kts | 188° |
| 2026-04-21 18:39 | 54.65458 | -1.82222 | 17462 ft | 354 kts | 187° |
| 2026-04-21 18:39 | 54.62971 | -1.82976 | 18136 ft | 358 kts | 187° |
| 2026-04-21 18:39 | 54.60476 | -1.83743 | 18785 ft | 361 kts | 187° |
| 2026-04-21 18:39 | 54.57996 | -1.84515 | 19417 ft | 365 kts | 187° |
| 2026-04-21 18:40 | 54.55495 | -1.85300 | 20031 ft | 368 kts | 188° |
| 2026-04-21 18:40 | 54.52962 | -1.86097 | 20633 ft | 372 kts | 188° |
| 2026-04-21 18:40 | 54.51291 | -1.86623 | 21024 ft | 374 kts | 188° |
| 2026-04-21 18:40 | 54.47846 | -1.87706 | 21801 ft | 378 kts | 188° |
| 2026-04-21 18:41 | 54.45254 | -1.88519 | 22360 ft | 381 kts | 188° |
| 2026-04-21 18:41 | 54.42632 | -1.89341 | 22920 ft | 384 kts | 188° |
| 2026-04-21 18:41 | 54.40007 | -1.90163 | 23461 ft | 387 kts | 188° |
| 2026-04-21 18:41 | 54.37365 | -1.90988 | 23974 ft | 390 kts | 188° |
| 2026-04-21 18:42 | 54.34698 | -1.91821 | 24472 ft | 393 kts | 188° |
| 2026-04-21 18:42 | 54.32000 | -1.92660 | 24927 ft | 396 kts | 189° |
| 2026-04-21 18:42 | 54.29282 | -1.93503 | 25344 ft | 400 kts | 189° |
| 2026-04-21 18:42 | 54.26548 | -1.94354 | 25756 ft | 404 kts | 189° |
| 2026-04-21 18:43 | 54.23823 | -1.95467 | 26135 ft | 409 kts | 197° |
| 2026-04-21 18:43 | 54.21160 | -1.97314 | 26513 ft | 412 kts | 207° |
| 2026-04-21 18:43 | 54.18671 | -1.99750 | 26914 ft | 415 kts | 210° |
| 2026-04-21 18:43 | 54.16076 | -2.01803 | 27275 ft | 419 kts | 202° |
| 2026-04-21 18:44 | 54.13338 | -2.03532 | 27659 ft | 421 kts | 201° |
| 2026-04-21 18:44 | 54.10600 | -2.05241 | 28006 ft | 424 kts | 202° |
| 2026-04-21 18:44 | 54.07839 | -2.07021 | 28337 ft | 427 kts | 203° |
| 2026-04-21 18:44 | 54.05066 | -2.08866 | 28684 ft | 430 kts | 204° |
| 2026-04-21 18:45 | 54.02287 | -2.10754 | 29006 ft | 433 kts | 205° |
| 2026-04-21 18:45 | 53.99473 | -2.12682 | 29351 ft | 435 kts | 205° |
| 2026-04-21 18:45 | 53.96690 | -2.14600 | 29688 ft | 437 kts | 206° |
| 2026-04-21 18:45 | 53.93842 | -2.16567 | 30007 ft | 439 kts | 206° |
| 2026-04-21 18:46 | 53.91038 | -2.18500 | 30305 ft | 441 kts | 206° |
| 2026-04-21 18:46 | 53.88149 | -2.20496 | 30579 ft | 444 kts | 207° |
| 2026-04-21 18:46 | 53.85278 | -2.22471 | 30829 ft | 447 kts | 207° |
| 2026-04-21 18:46 | 53.82357 | -2.24484 | 31094 ft | 450 kts | 207° |
| 2026-04-21 18:47 | 53.79446 | -2.26481 | 31351 ft | 452 kts | 207° |
| 2026-04-21 18:47 | 53.76542 | -2.28475 | 31611 ft | 453 kts | 207° |
| 2026-04-21 18:47 | 53.73562 | -2.30382 | 31900 ft | 457 kts | 203° |
| 2026-04-21 18:47 | 53.70501 | -2.31805 | 32258 ft | 459 kts | 197° |
| 2026-04-21 18:48 | 53.67354 | -2.32724 | 32623 ft | 461 kts | 192° |
| 2026-04-21 18:48 | 53.64156 | -2.33132 | 33003 ft | 461 kts | 186° |
| 2026-04-21 18:48 | 53.60947 | -2.33019 | 33374 ft | 462 kts | 180° |
| 2026-04-21 18:48 | 53.57740 | -2.32384 | 33705 ft | 463 kts | 174° |
| 2026-04-21 18:49 | 53.54586 | -2.31480 | 34012 ft | 462 kts | 173° |
| 2026-04-21 18:49 | 53.51389 | -2.30526 | 34271 ft | 463 kts | 173° |
| 2026-04-21 18:49 | 53.49294 | -2.29900 | 34408 ft | 463 kts | 173° |
| 2026-04-21 18:49 | 53.45032 | -2.28653 | 34663 ft | 465 kts | 173° |
| 2026-04-21 18:50 | 53.41844 | -2.27729 | 34879 ft | 465 kts | 174° |
| 2026-04-21 18:50 | 53.38641 | -2.26810 | 35020 ft | 466 kts | 174° |
| 2026-04-21 18:50 | 53.35439 | -2.25900 | 35200 ft | 467 kts | 173° |
| 2026-04-21 18:50 | 53.32230 | -2.24988 | 35340 ft | 468 kts | 173° |
| 2026-04-21 18:51 | 53.28974 | -2.24063 | 35341 ft | 468 kts | 174° |
| 2026-04-21 18:51 | 53.22561 | -2.22246 | 35349 ft | 468 kts | 174° |
| 2026-04-21 18:52 | 53.16134 | -2.20150 | 35334 ft | 470 kts | 169° |
| 2026-04-21 18:52 | 53.09891 | -2.16877 | 35332 ft | 472 kts | 162° |
| 2026-04-21 18:53 | 53.03844 | -2.12701 | 35332 ft | 473 kts | 160° |
| 2026-04-21 18:53 | 52.97759 | -2.08483 | 35307 ft | 473 kts | 160° |
| 2026-04-21 18:54 | 52.91669 | -2.04291 | 35328 ft | 474 kts | 160° |
| 2026-04-21 18:54 | 52.85564 | -2.00108 | 35317 ft | 474 kts | 160° |
| 2026-04-21 18:54 | 52.82552 | -1.98050 | 35200 ft | 474 kts | 160° |
| 2026-04-21 18:55 | 52.80521 | -1.96665 | 35238 ft | 474 kts | 160° |
| 2026-04-21 18:55 | 52.73426 | -1.91831 | 35291 ft | 473 kts | 160° |
| 2026-04-21 18:56 | 52.67333 | -1.87695 | 35321 ft | 472 kts | 160° |
| 2026-04-21 18:56 | 52.61219 | -1.83554 | 35319 ft | 472 kts | 160° |
| 2026-04-21 18:57 | 52.55130 | -1.79445 | 35339 ft | 473 kts | 160° |
| 2026-04-21 18:57 | 52.49023 | -1.75336 | 35335 ft | 472 kts | 160° |
| 2026-04-21 18:58 | 52.42959 | -1.71267 | 35331 ft | 473 kts | 160° |
| 2026-04-21 18:58 | 52.36861 | -1.67189 | 35312 ft | 473 kts | 160° |
| 2026-04-21 18:59 | 52.30874 | -1.62680 | 35332 ft | 473 kts | 157° |
| 2026-04-21 18:59 | 52.24936 | -1.58067 | 35303 ft | 473 kts | 156° |
| 2026-04-21 19:00 | 52.18966 | -1.53445 | 35315 ft | 473 kts | 157° |
| 2026-04-21 19:00 | 52.12998 | -1.48845 | 35312 ft | 474 kts | 157° |
| 2026-04-21 19:01 | 52.07041 | -1.44264 | 35293 ft | 474 kts | 157° |
| 2026-04-21 19:01 | 52.01063 | -1.39681 | 35289 ft | 474 kts | 157° |
| 2026-04-21 19:02 | 51.95071 | -1.35102 | 35293 ft | 474 kts | 157° |
| 2026-04-21 19:02 | 51.89069 | -1.30530 | 35285 ft | 474 kts | 158° |
| 2026-04-21 19:03 | 51.83116 | -1.26008 | 35277 ft | 475 kts | 158° |
| 2026-04-21 19:03 | 51.77144 | -1.21485 | 35276 ft | 475 kts | 158° |
| 2026-04-21 19:04 | 51.71145 | -1.16956 | 35269 ft | 475 kts | 158° |
| 2026-04-21 19:04 | 51.65193 | -1.12473 | 35273 ft | 474 kts | 158° |
| 2026-04-21 19:05 | 51.59220 | -1.07991 | 35266 ft | 474 kts | 158° |
| 2026-04-21 19:05 | 51.53276 | -1.03542 | 35263 ft | 474 kts | 158° |
| 2026-04-21 19:06 | 51.47288 | -0.99073 | 35263 ft | 474 kts | 158° |
| 2026-04-21 19:06 | 51.41321 | -0.94630 | 35256 ft | 474 kts | 158° |
| 2026-04-21 19:07 | 51.35336 | -0.90185 | 35256 ft | 474 kts | 158° |
| 2026-04-21 19:07 | 51.29354 | -0.85760 | 35257 ft | 474 kts | 158° |
| 2026-04-21 19:08 | 51.23371 | -0.81347 | 35254 ft | 474 kts | 158° |
| 2026-04-21 19:08 | 51.17360 | -0.76926 | 35250 ft | 474 kts | 159° |
| 2026-04-21 19:09 | 51.11377 | -0.72535 | 35245 ft | 473 kts | 158° |
| 2026-04-21 19:09 | 51.05387 | -0.68154 | 35242 ft | 473 kts | 158° |
| 2026-04-21 19:10 | 50.99394 | -0.63783 | 35240 ft | 474 kts | 158° |
| 2026-04-21 19:10 | 50.93404 | -0.59426 | 35239 ft | 474 kts | 158° |
| 2026-04-21 19:11 | 50.87384 | -0.55056 | 35235 ft | 474 kts | 159° |
| 2026-04-21 19:11 | 50.81389 | -0.50721 | 35236 ft | 474 kts | 159° |
| 2026-04-21 19:12 | 50.76408 | -0.47127 | 35237 ft | 474 kts | 159° |
| 2026-04-21 19:12 | 50.69440 | -0.42113 | 35229 ft | 473 kts | 159° |
| 2026-04-21 19:13 | 50.63485 | -0.37843 | 35225 ft | 473 kts | 159° |
| 2026-04-21 19:13 | 50.57478 | -0.33548 | 35219 ft | 473 kts | 160° |
| 2026-04-21 19:14 | 50.51439 | -0.29244 | 35217 ft | 473 kts | 160° |
| 2026-04-21 19:14 | 50.45513 | -0.25031 | 35214 ft | 473 kts | 160° |
| 2026-04-21 19:15 | 50.39502 | -0.20768 | 35201 ft | 472 kts | 160° |
| 2026-04-21 19:15 | 50.33552 | -0.16559 | 35195 ft | 472 kts | 160° |
| 2026-04-21 19:16 | 50.27549 | -0.12324 | 35189 ft | 472 kts | 160° |
| 2026-04-21 19:16 | 50.21601 | -0.08143 | 35186 ft | 472 kts | 160° |
| 2026-04-21 19:17 | 50.12557 | -0.02084 | 35174 ft | 470 kts | 165° |
| 2026-04-21 19:17 | 50.06346 | 0.00706 | 35167 ft | 466 kts | 173° |
| 2026-04-21 19:18 | 49.99954 | 0.02355 | 35171 ft | 465 kts | 177° |
| 2026-04-21 19:18 | 49.93534 | 0.03798 | 35167 ft | 465 kts | 177° |
| 2026-04-21 19:19 | 49.87158 | 0.05250 | 35165 ft | 465 kts | 177° |
| 2026-04-21 19:19 | 49.80734 | 0.06718 | 35167 ft | 464 kts | 177° |
| 2026-04-21 19:20 | 49.74397 | 0.08167 | 35153 ft | 463 kts | 177° |
| 2026-04-21 19:20 | 49.68018 | 0.09619 | 35155 ft | 463 kts | 177° |
| 2026-04-21 19:21 | 49.61644 | 0.11070 | 35150 ft | 462 kts | 177° |
| 2026-04-21 19:21 | 49.55302 | 0.12507 | 35151 ft | 463 kts | 177° |
| 2026-04-21 19:22 | 49.48913 | 0.13953 | 35151 ft | 462 kts | 177° |
| 2026-04-21 19:22 | 49.42567 | 0.15384 | 35148 ft | 462 kts | 178° |
| 2026-04-21 19:23 | 49.36240 | 0.16808 | 35143 ft | 462 kts | 177° |
| 2026-04-21 19:23 | 49.29886 | 0.18235 | 35145 ft | 461 kts | 178° |
| 2026-04-21 19:24 | 49.23548 | 0.19652 | 35131 ft | 461 kts | 178° |
| 2026-04-21 19:24 | 49.17228 | 0.21064 | 35123 ft | 461 kts | 178° |
| 2026-04-21 19:25 | 49.10880 | 0.22479 | 35121 ft | 460 kts | 178° |
| 2026-04-21 19:25 | 49.04580 | 0.23878 | 35119 ft | 461 kts | 178° |
| 2026-04-21 19:26 | 48.98215 | 0.25287 | 35106 ft | 460 kts | 178° |
| 2026-04-21 19:26 | 48.91906 | 0.26681 | 35104 ft | 460 kts | 178° |
| 2026-04-21 19:27 | 48.85594 | 0.28074 | 35093 ft | 459 kts | 178° |
| 2026-04-21 19:27 | 48.79305 | 0.29453 | 35091 ft | 459 kts | 178° |
| 2026-04-21 19:28 | 48.72955 | 0.30846 | 35090 ft | 460 kts | 178° |
| 2026-04-21 19:28 | 48.66640 | 0.32227 | 35086 ft | 459 kts | 178° |
| 2026-04-21 19:29 | 48.60345 | 0.33600 | 35083 ft | 459 kts | 178° |
| 2026-04-21 19:29 | 48.54036 | 0.34972 | 35085 ft | 459 kts | 178° |
| 2026-04-21 19:30 | 48.47744 | 0.36333 | 35086 ft | 459 kts | 178° |
| 2026-04-21 19:30 | 48.41427 | 0.37732 | 35080 ft | 460 kts | 176° |
| 2026-04-21 19:31 | 48.35216 | 0.39890 | 35078 ft | 463 kts | 169° |
| 2026-04-21 19:31 | 48.29055 | 0.42591 | 35072 ft | 463 kts | 169° |
| 2026-04-21 19:32 | 48.22857 | 0.45297 | 35074 ft | 463 kts | 168° |
| 2026-04-21 19:32 | 48.16693 | 0.47975 | 35069 ft | 462 kts | 168° |
| 2026-04-21 19:33 | 48.10548 | 0.50635 | 35061 ft | 462 kts | 168° |
| 2026-04-21 19:33 | 48.04382 | 0.53297 | 35056 ft | 462 kts | 168° |
| 2026-04-21 19:34 | 47.98201 | 0.55956 | 35058 ft | 463 kts | 168° |
| 2026-04-21 19:34 | 47.92034 | 0.58602 | 35053 ft | 462 kts | 168° |
| 2026-04-21 19:35 | 47.82735 | 0.62583 | 35043 ft | 462 kts | 169° |
| 2026-04-21 19:36 | 47.76527 | 0.65231 | 35038 ft | 462 kts | 169° |
| 2026-04-21 19:36 | 47.70329 | 0.67869 | 35035 ft | 462 kts | 170° |
| 2026-04-21 19:37 | 47.64129 | 0.70501 | 35035 ft | 462 kts | 169° |
| 2026-04-21 19:37 | 47.57937 | 0.73124 | 35029 ft | 462 kts | 170° |
| 2026-04-21 19:38 | 47.51774 | 0.75728 | 35032 ft | 461 kts | 170° |
| 2026-04-21 19:38 | 47.46646 | 0.77890 | 35033 ft | 461 kts | 170° |
| 2026-04-21 19:39 | 47.39420 | 0.80929 | 35031 ft | 461 kts | 170° |
| 2026-04-21 19:39 | 47.33212 | 0.83532 | 35029 ft | 461 kts | 170° |
| 2026-04-21 19:40 | 47.26990 | 0.86137 | 35026 ft | 461 kts | 170° |
| 2026-04-21 19:40 | 47.20734 | 0.88265 | 35019 ft | 457 kts | 176° |
| 2026-04-21 19:41 | 47.14495 | 0.89747 | 35013 ft | 457 kts | 177° |
| 2026-04-21 19:41 | 47.08231 | 0.91243 | 35002 ft | 457 kts | 177° |
| 2026-04-21 19:42 | 47.01959 | 0.92777 | 34999 ft | 457 kts | 176° |
| 2026-04-21 19:42 | 46.95640 | 0.94335 | 34998 ft | 458 kts | 176° |
| 2026-04-21 19:43 | 46.89325 | 0.95895 | 34987 ft | 458 kts | 176° |
| 2026-04-21 19:43 | 46.83015 | 0.97454 | 34990 ft | 458 kts | 176° |
| 2026-04-21 19:44 | 46.76743 | 0.98999 | 34979 ft | 458 kts | 176° |
| 2026-04-21 19:44 | 46.70433 | 1.00548 | 34971 ft | 457 kts | 176° |
| 2026-04-21 19:45 | 46.64153 | 1.02090 | 34966 ft | 457 kts | 176° |
| 2026-04-21 19:45 | 46.57875 | 1.03625 | 34962 ft | 457 kts | 176° |
| 2026-04-21 19:46 | 46.51571 | 1.05161 | 34959 ft | 457 kts | 176° |
| 2026-04-21 19:46 | 46.45320 | 1.06681 | 34958 ft | 456 kts | 176° |
| 2026-04-21 19:47 | 46.39091 | 1.08194 | 34947 ft | 456 kts | 176° |
| 2026-04-21 19:47 | 46.32824 | 1.09711 | 34935 ft | 456 kts | 176° |
| 2026-04-21 19:48 | 46.26595 | 1.11217 | 34945 ft | 456 kts | 176° |
| 2026-04-21 19:48 | 46.20353 | 1.12722 | 34936 ft | 456 kts | 176° |
| 2026-04-21 19:49 | 46.14077 | 1.14231 | 34938 ft | 456 kts | 176° |
| 2026-04-21 19:49 | 46.07868 | 1.15722 | 34924 ft | 455 kts | 176° |
| 2026-04-21 19:50 | 46.02632 | 1.16974 | 34920 ft | 455 kts | 176° |
| 2026-04-21 19:50 | 45.95342 | 1.18715 | 34923 ft | 455 kts | 176° |
| 2026-04-21 19:51 | 45.89127 | 1.20197 | 34928 ft | 455 kts | 176° |
| 2026-04-21 19:51 | 45.82856 | 1.21689 | 34927 ft | 455 kts | 176° |
| 2026-04-21 19:52 | 45.76621 | 1.23168 | 34930 ft | 455 kts | 176° |
| 2026-04-21 19:52 | 45.70385 | 1.24642 | 34914 ft | 454 kts | 175° |
| 2026-04-21 19:53 | 45.64149 | 1.26115 | 34916 ft | 455 kts | 176° |
| 2026-04-21 19:53 | 45.57938 | 1.27576 | 34909 ft | 455 kts | 175° |
| 2026-04-21 19:54 | 45.51717 | 1.29038 | 34899 ft | 455 kts | 175° |
| 2026-04-21 19:54 | 45.45466 | 1.30505 | 34896 ft | 455 kts | 175° |
| 2026-04-21 19:55 | 45.39246 | 1.31960 | 34900 ft | 455 kts | 175° |
| 2026-04-21 19:55 | 45.32975 | 1.33425 | 34891 ft | 454 kts | 175° |
| 2026-04-21 19:56 | 45.26747 | 1.34875 | 34891 ft | 454 kts | 175° |
| 2026-04-21 19:56 | 45.20518 | 1.36323 | 34881 ft | 454 kts | 175° |
| 2026-04-21 19:57 | 45.14248 | 1.37777 | 34876 ft | 454 kts | 175° |
| 2026-04-21 19:57 | 45.08009 | 1.39519 | 34876 ft | 456 kts | 172° |
| 2026-04-21 19:58 | 45.01821 | 1.41435 | 34875 ft | 455 kts | 172° |
| 2026-04-21 19:58 | 44.95590 | 1.43187 | 34876 ft | 452 kts | 175° |
| 2026-04-21 19:59 | 44.89368 | 1.44448 | 34869 ft | 452 kts | 176° |
| 2026-04-21 19:59 | 44.83123 | 1.45666 | 34864 ft | 452 kts | 176° |
| 2026-04-21 20:00 | 44.76918 | 1.46872 | 34863 ft | 452 kts | 176° |
| 2026-04-21 20:00 | 44.70713 | 1.48082 | 34862 ft | 451 kts | 176° |
| 2026-04-21 20:01 | 44.64452 | 1.49293 | 34927 ft | 457 kts | 176° |
| 2026-04-21 20:01 | 44.61324 | 1.49898 | 35138 ft | 457 kts | 176° |
| 2026-04-21 20:01 | 44.58201 | 1.50503 | 35408 ft | 455 kts | 176° |
| 2026-04-21 20:01 | 44.55040 | 1.51114 | 35675 ft | 454 kts | 176° |
| 2026-04-21 20:02 | 44.53000 | 1.51507 | 35847 ft | 453 kts | 176° |
| 2026-04-21 20:02 | 44.48828 | 1.52386 | 36182 ft | 452 kts | 175° |
| 2026-04-21 20:02 | 44.45725 | 1.53101 | 36411 ft | 451 kts | 174° |
| 2026-04-21 20:02 | 44.42658 | 1.53814 | 36628 ft | 450 kts | 174° |
| 2026-04-21 20:03 | 44.39580 | 1.54527 | 36817 ft | 449 kts | 174° |
| 2026-04-21 20:03 | 44.33413 | 1.55939 | 36847 ft | 448 kts | 174° |
| 2026-04-21 20:04 | 44.27297 | 1.57328 | 36848 ft | 448 kts | 175° |
| 2026-04-21 20:04 | 44.21162 | 1.58716 | 36851 ft | 448 kts | 175° |
| 2026-04-21 20:05 | 44.15019 | 1.60100 | 36849 ft | 448 kts | 175° |
| 2026-04-21 20:05 | 44.08855 | 1.61487 | 36844 ft | 447 kts | 175° |
| 2026-04-21 20:06 | 44.02722 | 1.62862 | 36843 ft | 447 kts | 175° |
| 2026-04-21 20:06 | 43.96598 | 1.64232 | 36846 ft | 446 kts | 175° |
| 2026-04-21 20:07 | 43.90459 | 1.65604 | 36847 ft | 446 kts | 175° |
| 2026-04-21 20:07 | 43.85386 | 1.66736 | 36846 ft | 446 kts | 175° |
| 2026-04-21 20:08 | 43.78225 | 1.68329 | 36843 ft | 446 kts | 175° |
| 2026-04-21 20:08 | 43.72140 | 1.69680 | 36844 ft | 445 kts | 175° |
| 2026-04-21 20:09 | 43.66007 | 1.71041 | 36840 ft | 445 kts | 175° |
| 2026-04-21 20:09 | 43.59934 | 1.72385 | 36842 ft | 445 kts | 175° |
| 2026-04-21 20:10 | 43.53825 | 1.73734 | 36845 ft | 445 kts | 175° |
| 2026-04-21 20:10 | 43.47705 | 1.75081 | 36846 ft | 445 kts | 175° |
| 2026-04-21 20:11 | 43.41598 | 1.76424 | 36852 ft | 445 kts | 175° |
| 2026-04-21 20:11 | 43.35480 | 1.77766 | 36858 ft | 445 kts | 175° |
| 2026-04-21 20:12 | 43.29419 | 1.79091 | 36863 ft | 445 kts | 174° |
| 2026-04-21 20:12 | 43.24297 | 1.80211 | 36868 ft | 445 kts | 174° |
| 2026-04-21 20:13 | 43.17207 | 1.81756 | 36875 ft | 445 kts | 174° |
| 2026-04-21 20:13 | 43.11087 | 1.83091 | 36880 ft | 444 kts | 174° |
| 2026-04-21 20:14 | 43.05020 | 1.84408 | 36890 ft | 443 kts | 174° |
| 2026-04-21 20:14 | 42.98918 | 1.85730 | 36894 ft | 444 kts | 174° |
| 2026-04-21 20:15 | 42.92805 | 1.87052 | 36907 ft | 444 kts | 174° |
| 2026-04-21 20:15 | 42.86719 | 1.88366 | 36932 ft | 444 kts | 174° |
| 2026-04-21 20:16 | 42.80625 | 1.89679 | 36962 ft | 445 kts | 174° |
| 2026-04-21 20:16 | 42.74542 | 1.90986 | 36993 ft | 444 kts | 174° |
| 2026-04-21 20:17 | 42.68420 | 1.92301 | 37011 ft | 445 kts | 174° |
| 2026-04-21 20:17 | 42.62321 | 1.93608 | 37027 ft | 445 kts | 174° |
| 2026-04-21 20:18 | 42.57249 | 1.94693 | 37034 ft | 445 kts | 174° |
| 2026-04-21 20:18 | 42.50088 | 1.96220 | 37039 ft | 445 kts | 174° |
| 2026-04-21 20:19 | 42.43992 | 1.97519 | 37032 ft | 446 kts | 174° |
| 2026-04-21 20:19 | 42.37909 | 1.98811 | 36764 ft | 440 kts | 174° |
| 2026-04-21 20:19 | 42.34913 | 1.99445 | 36253 ft | 439 kts | 174° |
| 2026-04-21 20:20 | 42.31869 | 2.00088 | 35652 ft | 438 kts | 174° |
| 2026-04-21 20:20 | 42.28871 | 2.00723 | 35073 ft | 437 kts | 173° |
| 2026-04-21 20:20 | 42.25883 | 2.01356 | 34404 ft | 438 kts | 173° |
| 2026-04-21 20:20 | 42.22866 | 2.01995 | 33627 ft | 440 kts | 173° |
| 2026-04-21 20:21 | 42.19846 | 2.02601 | 32807 ft | 442 kts | 177° |
| 2026-04-21 20:21 | 42.16813 | 2.02349 | 31835 ft | 438 kts | 198° |
| 2026-04-21 20:21 | 42.14111 | 2.00669 | 30913 ft | 432 kts | 219° |
| 2026-04-21 20:21 | 42.11946 | 1.97924 | 30126 ft | 426 kts | 231° |
| 2026-04-21 20:22 | 42.09946 | 1.95014 | 29587 ft | 423 kts | 226° |
| 2026-04-21 20:22 | 42.04789 | 1.91210 | 28462 ft | 424 kts | 205° |
| 2026-04-21 20:22 | 42.02026 | 1.89810 | 27882 ft | 422 kts | 204° |
| 2026-04-21 20:23 | 41.99313 | 1.88441 | 27298 ft | 419 kts | 204° |
| 2026-04-21 20:23 | 41.96576 | 1.87046 | 26717 ft | 416 kts | 204° |
| 2026-04-21 20:23 | 41.93892 | 1.85664 | 26143 ft | 413 kts | 204° |
| 2026-04-21 20:23 | 41.91226 | 1.84283 | 25594 ft | 410 kts | 204° |
| 2026-04-21 20:24 | 41.88594 | 1.82914 | 25071 ft | 407 kts | 204° |
| 2026-04-21 20:24 | 41.85976 | 1.81550 | 24538 ft | 403 kts | 204° |
| 2026-04-21 20:24 | 41.83373 | 1.80192 | 24008 ft | 400 kts | 204° |
| 2026-04-21 20:24 | 41.80793 | 1.78847 | 23488 ft | 397 kts | 204° |
| 2026-04-21 20:25 | 41.78239 | 1.77515 | 22982 ft | 394 kts | 204° |
| 2026-04-21 20:25 | 41.75674 | 1.76181 | 22488 ft | 391 kts | 204° |
| 2026-04-21 20:25 | 41.73160 | 1.74872 | 22051 ft | 386 kts | 204° |
| 2026-04-21 20:25 | 41.70661 | 1.73574 | 22339 ft | 385 kts | 204° |
| 2026-04-21 20:26 | 41.68254 | 1.72328 | 23665 ft | 365 kts | 204° |
| 2026-04-21 20:26 | 41.66031 | 1.71182 | 25346 ft | 334 kts | 205° |
| 2026-04-21 20:26 | 41.63985 | 1.70132 | 26682 ft | 301 kts | 206° |
| 2026-04-21 20:26 | 41.62094 | 1.69155 | 26952 ft | 289 kts | 206° |
| 2026-04-21 20:27 | 41.60222 | 1.68173 | 26421 ft | 296 kts | 206° |
| 2026-04-21 20:27 | 41.58269 | 1.67146 | 25658 ft | 307 kts | 206° |
| 2026-04-21 20:27 | 41.56247 | 1.66088 | 24848 ft | 319 kts | 205° |
| 2026-04-21 20:27 | 41.54172 | 1.65007 | 24023 ft | 330 kts | 205° |
| 2026-04-21 20:28 | 41.51984 | 1.63875 | 23178 ft | 341 kts | 205° |
| 2026-04-21 20:28 | 41.49764 | 1.62729 | 22488 ft | 347 kts | 204° |
| 2026-04-21 20:28 | 41.47505 | 1.61567 | 22035 ft | 346 kts | 204° |
| 2026-04-21 20:28 | 41.45290 | 1.60429 | 21643 ft | 343 kts | 204° |
| 2026-04-21 20:29 | 41.43065 | 1.59285 | 21231 ft | 341 kts | 204° |
| 2026-04-21 20:29 | 41.40873 | 1.58156 | 20807 ft | 339 kts | 204° |
| 2026-04-21 20:29 | 41.38673 | 1.57025 | 20389 ft | 336 kts | 204° |
| 2026-04-21 20:29 | 41.36525 | 1.55922 | 20171 ft | 328 kts | 204° |
| 2026-04-21 20:30 | 41.34416 | 1.54829 | 19989 ft | 318 kts | 206° |
| 2026-04-21 20:30 | 41.32454 | 1.53639 | 19812 ft | 307 kts | 208° |
| 2026-04-21 20:30 | 41.30545 | 1.52432 | 19637 ft | 298 kts | 209° |
| 2026-04-21 20:30 | 41.28698 | 1.51257 | 19413 ft | 291 kts | 209° |
| 2026-04-21 20:31 | 41.26894 | 1.50108 | 19079 ft | 288 kts | 209° |
| 2026-04-21 20:31 | 41.25075 | 1.48950 | 18704 ft | 287 kts | 210° |
| 2026-04-21 20:31 | 41.23461 | 1.47480 | 18270 ft | 280 kts | 234° |
| 2026-04-21 20:31 | 41.22572 | 1.45245 | 17890 ft | 273 kts | 253° |
| 2026-04-21 20:32 | 41.22028 | 1.42849 | 17548 ft | 271 kts | 255° |
| 2026-04-21 20:32 | 41.21494 | 1.40488 | 17164 ft | 270 kts | 258° |
| 2026-04-21 20:32 | 41.21384 | 1.37995 | 16477 ft | 279 kts | 282° |
| 2026-04-21 20:32 | 41.22185 | 1.35610 | 15806 ft | 288 kts | 308° |
| 2026-04-21 20:33 | 41.23734 | 1.33953 | 15367 ft | 292 kts | 333° |
| 2026-04-21 20:33 | 41.25714 | 1.33354 | 14981 ft | 295 kts | 358° |
| 2026-04-21 20:33 | 41.27719 | 1.33955 | 14583 ft | 300 kts | 24° |
| 2026-04-21 20:33 | 41.29362 | 1.35651 | 14180 ft | 304 kts | 49° |
| 2026-04-21 20:34 | 41.30494 | 1.38012 | 13820 ft | 303 kts | 59° |
| 2026-04-21 20:34 | 41.31459 | 1.40467 | 13456 ft | 302 kts | 61° |
| 2026-04-21 20:34 | 41.32401 | 1.42956 | 13087 ft | 300 kts | 61° |
| 2026-04-21 20:34 | 41.33326 | 1.45416 | 12731 ft | 299 kts | 61° |
| 2026-04-21 20:35 | 41.34256 | 1.47889 | 12358 ft | 297 kts | 61° |
| 2026-04-21 20:35 | 41.35183 | 1.50353 | 12000 ft | 295 kts | 61° |
| 2026-04-21 20:35 | 41.36089 | 1.52762 | 11653 ft | 293 kts | 61° |
| 2026-04-21 20:35 | 41.37003 | 1.55199 | 11297 ft | 292 kts | 61° |
| 2026-04-21 20:36 | 41.37899 | 1.57584 | 10951 ft | 290 kts | 61° |
| 2026-04-21 20:36 | 41.38799 | 1.59977 | 10612 ft | 287 kts | 61° |
| 2026-04-21 20:36 | 41.39684 | 1.62328 | 10254 ft | 286 kts | 61° |
| 2026-04-21 20:36 | 41.40580 | 1.64709 | 9906 ft | 284 kts | 61° |
| 2026-04-21 20:37 | 41.41453 | 1.67024 | 9558 ft | 282 kts | 62° |
| 2026-04-21 20:37 | 41.42357 | 1.69403 | 9192 ft | 281 kts | 62° |
| 2026-04-21 20:37 | 41.43244 | 1.71728 | 8824 ft | 280 kts | 62° |
| 2026-04-21 20:37 | 41.44148 | 1.74078 | 8441 ft | 279 kts | 62° |
| 2026-04-21 20:38 | 41.45072 | 1.76460 | 8060 ft | 278 kts | 62° |
| 2026-04-21 20:38 | 41.45967 | 1.78747 | 7699 ft | 277 kts | 62° |
| 2026-04-21 20:38 | 41.46860 | 1.81030 | 7326 ft | 277 kts | 64° |
| 2026-04-21 20:38 | 41.47349 | 1.83479 | 6905 ft | 275 kts | 94° |
| 2026-04-21 20:39 | 41.46773 | 1.85823 | 6526 ft | 268 kts | 129° |
| 2026-04-21 20:39 | 41.45355 | 1.87364 | 6174 ft | 260 kts | 158° |
| 2026-04-21 20:39 | 41.43648 | 1.87914 | 5923 ft | 249 kts | 181° |
| 2026-04-21 20:39 | 41.42001 | 1.87543 | 5779 ft | 236 kts | 204° |
| 2026-04-21 20:40 | 41.40641 | 1.86381 | 5656 ft | 230 kts | 226° |
| 2026-04-21 20:40 | 41.39751 | 1.84618 | 5538 ft | 231 kts | 249° |
| 2026-04-21 20:40 | 41.39322 | 1.82563 | 5423 ft | 232 kts | 256° |
| 2026-04-21 20:40 | 41.38943 | 1.80480 | 5297 ft | 231 kts | 255° |
| 2026-04-21 20:41 | 41.38560 | 1.78411 | 5174 ft | 231 kts | 255° |
| 2026-04-21 20:41 | 41.38170 | 1.76345 | 5050 ft | 230 kts | 255° |
| 2026-04-21 20:41 | 41.37775 | 1.74277 | 4928 ft | 230 kts | 255° |
| 2026-04-21 20:41 | 41.37380 | 1.72220 | 4804 ft | 229 kts | 255° |
| 2026-04-21 20:42 | 41.36984 | 1.70169 | 4682 ft | 229 kts | 254° |
| 2026-04-21 20:42 | 41.36589 | 1.68131 | 4557 ft | 228 kts | 254° |
| 2026-04-21 20:42 | 41.36192 | 1.66085 | 4433 ft | 228 kts | 254° |
| 2026-04-21 20:42 | 41.35799 | 1.64064 | 4303 ft | 222 kts | 254° |
| 2026-04-21 20:43 | 41.35420 | 1.62118 | 4166 ft | 213 kts | 254° |
| 2026-04-21 20:43 | 41.35051 | 1.60222 | 4041 ft | 211 kts | 254° |
| 2026-04-21 20:43 | 41.34680 | 1.58326 | 3918 ft | 211 kts | 255° |
| 2026-04-21 20:43 | 41.34313 | 1.56460 | 3794 ft | 211 kts | 253° |
| 2026-04-21 20:44 | 41.33811 | 1.54622 | 3667 ft | 210 kts | 242° |
| 2026-04-21 20:44 | 41.33001 | 1.53018 | 3545 ft | 209 kts | 230° |
| 2026-04-21 20:44 | 41.32052 | 1.51553 | 3425 ft | 208 kts | 228° |
| 2026-04-21 20:44 | 41.31094 | 1.50126 | 3298 ft | 207 kts | 227° |
| 2026-04-21 20:45 | 41.30133 | 1.48705 | 3177 ft | 207 kts | 227° |
| 2026-04-21 20:45 | 41.29168 | 1.47285 | 3055 ft | 207 kts | 227° |
| 2026-04-21 20:45 | 41.28202 | 1.45861 | 2931 ft | 207 kts | 227° |
| 2026-04-21 20:45 | 41.27240 | 1.44446 | 2837 ft | 202 kts | 227° |
| 2026-04-21 20:46 | 41.26347 | 1.43129 | 2764 ft | 180 kts | 227° |
| 2026-04-21 20:46 | 41.25564 | 1.41975 | 2648 ft | 159 kts | 226° |
| 2026-04-21 20:46 | 41.24859 | 1.40935 | 2598 ft | 150 kts | 226° |
| 2026-04-21 20:46 | 41.24160 | 1.39912 | 2574 ft | 149 kts | 226° |
| 2026-04-21 20:47 | 41.23459 | 1.38887 | 2575 ft | 149 kts | 226° |
| 2026-04-21 20:47 | 41.22761 | 1.37866 | 2573 ft | 148 kts | 226° |
| 2026-04-21 20:47 | 41.22069 | 1.36851 | 2574 ft | 149 kts | 226° |
| 2026-04-21 20:47 | 41.21370 | 1.35827 | 2578 ft | 146 kts | 226° |
| 2026-04-21 20:48 | 41.20697 | 1.34839 | 2571 ft | 144 kts | 225° |
| 2026-04-21 20:48 | 41.20060 | 1.33796 | 2570 ft | 145 kts | 232° |
| 2026-04-21 20:48 | 41.19537 | 1.32668 | 2477 ft | 145 kts | 238° |
| 2026-04-21 20:48 | 41.19088 | 1.31465 | 2283 ft | 144 kts | 243° |
| 2026-04-21 20:49 | 41.18699 | 1.30269 | 2097 ft | 143 kts | 245° |
| 2026-04-21 20:49 | 41.18331 | 1.29045 | 1911 ft | 142 kts | 246° |
| 2026-04-21 20:49 | 41.17971 | 1.27813 | 1722 ft | 142 kts | 247° |
| 2026-04-21 20:49 | 41.17617 | 1.26597 | 1539 ft | 141 kts | 247° |
| 2026-04-21 20:50 | 41.17264 | 1.25383 | 1353 ft | 141 kts | 247° |
| 2026-04-21 20:50 | 41.16916 | 1.24185 | 1161 ft | 141 kts | 246° |
| 2026-04-21 20:50 | 41.16547 | 1.22981 | 968 ft | 141 kts | 247° |
| 2026-04-21 20:50 | 41.16193 | 1.21776 | 789 ft | 140 kts | 248° |
| 2026-04-21 20:51 | 41.15839 | 1.20571 | 610 ft | 140 kts | 248° |
| 2026-04-21 20:51 | 41.15489 | 1.19365 | 430 ft | 140 kts | 249° |
| 2026-04-21 20:51 | 41.15148 | 1.18151 | 280 ft | 139 kts | 251° |
| 2026-04-21 20:51 | 41.14838 | 1.17050 | 238 ft | 107 kts | 249° |
| 2026-04-21 20:52 | 41.14629 | 1.16339 | 236 ft | 58 kts | 249° |
| 2026-04-21 20:52 | 41.14539 | 1.16030 | 236 ft | 23 kts | 250° |
| 2026-04-21 20:52 | 41.14570 | 1.15886 | 241 ft | 9 kts | 335° |
| 2026-04-21 20:52 | 41.14618 | 1.15862 | 244 ft | 5 kts | 348° |
| 2026-04-21 20:53 | 41.14643 | 1.15864 | 246 ft | 2 kts | 16° |
| 2026-04-21 20:53 | 41.14669 | 1.15880 | 247 ft | 6 kts | 18° |
| 2026-04-21 20:53 | 41.14705 | 1.15882 | 248 ft | 4 kts | 343° |
| 2026-04-21 20:53 | 41.14724 | 1.15873 | 249 ft | 1 kts | 339° |
| 2026-04-21 20:54 | 41.14744 | 1.15864 | 250 ft | 0 kts | 341° |